sensor_id;sensor_type;location;lat;lon;timestamp;temperature;humidity
39655;DHT22;25336;59.944;11.010;2023-03-01T00:01:10;2.50;60.90
39655;DHT22;25336;59.944;11.010;2023-03-01T00:03:36;2.50;60.80
39655;DHT22;25336;59.944;11.010;2023-03-01T00:06:02;2.50;60.80
39655;DHT22;25336;59.944;11.010;2023-03-01T00:08:28;2.50;60.80
39655;DHT22;25336;59.944;11.010;2023-03-01T00:11:10;2.50;60.80
39655;DHT22;25336;59.944;11.010;2023-03-01T00:13:37;2.50;60.80
39655;DHT22;25336;59.944;11.010;2023-03-01T00:16:08;2.50;60.50
39655;DHT22;25336;59.944;11.010;2023-03-01T00:18:34;2.50;60.50
39655;DHT22;25336;59.944;11.010;2023-03-01T00:21:00;2.50;60.40
39655;DHT22;25336;59.944;11.010;2023-03-01T00:23:26;2.50;60.30
39655;DHT22;25336;59.944;11.010;2023-03-01T00:25:52;2.50;60.30
39655;DHT22;25336;59.944;11.010;2023-03-01T00:28:18;2.50;60.30
39655;DHT22;25336;59.944;11.010;2023-03-01T00:30:44;2.50;60.30
39655;DHT22;25336;59.944;11.010;2023-03-01T00:33:10;2.40;60.20
39655;DHT22;25336;59.944;11.010;2023-03-01T00:35:36;2.40;60.20
39655;DHT22;25336;59.944;11.010;2023-03-01T00:38:02;2.40;60.10
39655;DHT22;25336;59.944;11.010;2023-03-01T00:40:28;2.40;60.00
39655;DHT22;25336;59.944;11.010;2023-03-01T00:42:54;2.40;60.00
39655;DHT22;25336;59.944;11.010;2023-03-01T00:45:20;2.30;59.80
39655;DHT22;25336;59.944;11.010;2023-03-01T00:47:46;2.30;60.60
39655;DHT22;25336;59.944;11.010;2023-03-01T00:50:12;1.50;59.50
39655;DHT22;25336;59.944;11.010;2023-03-01T00:52:38;2.20;59.80
39655;DHT22;25336;59.944;11.010;2023-03-01T00:55:05;2.20;59.90
39655;DHT22;25336;59.944;11.010;2023-03-01T00:57:31;2.20;59.90
39655;DHT22;25336;59.944;11.010;2023-03-01T00:59:56;2.10;59.90
39655;DHT22;25336;59.944;11.010;2023-03-01T01:02:22;2.30;60.00
39655;DHT22;25336;59.944;11.010;2023-03-01T01:04:48;2.10;60.00
39655;DHT22;25336;59.944;11.010;2023-03-01T01:07:15;2.10;60.00
39655;DHT22;25336;59.944;11.010;2023-03-01T01:09:40;2.00;60.10
39655;DHT22;25336;59.944;11.010;2023-03-01T01:12:06;2.00;60.20
39655;DHT22;25336;59.944;11.010;2023-03-01T01:14:35;2.00;60.40
39655;DHT22;25336;59.944;11.010;2023-03-01T01:17:01;2.00;60.50
39655;DHT22;25336;59.944;11.010;2023-03-01T01:19:26;1.90;60.40
39655;DHT22;25336;59.944;11.010;2023-03-01T01:21:52;1.90;60.20
39655;DHT22;25336;59.944;11.010;2023-03-01T01:24:18;1.90;60.10
39655;DHT22;25336;59.944;11.010;2023-03-01T01:26:45;1.80;60.10
39655;DHT22;25336;59.944;11.010;2023-03-01T01:29:11;1.80;60.10
39655;DHT22;25336;59.944;11.010;2023-03-01T01:31:39;1.80;60.00
39655;DHT22;25336;59.944;11.010;2023-03-01T01:34:07;1.90;59.80
39655;DHT22;25336;59.944;11.010;2023-03-01T01:36:34;1.70;59.50
39655;DHT22;25336;59.944;11.010;2023-03-01T01:39:00;1.60;59.50
39655;DHT22;25336;59.944;11.010;2023-03-01T01:41:27;1.50;59.60
39655;DHT22;25336;59.944;11.010;2023-03-01T01:46:46;1.40;60.50
39655;DHT22;25336;59.944;11.010;2023-03-01T01:49:22;1.40;60.50
39655;DHT22;25336;59.944;11.010;2023-03-01T01:51:52;1.40;60.50
39655;DHT22;25336;59.944;11.010;2023-03-01T01:54:28;1.30;60.10
39655;DHT22;25336;59.944;11.010;2023-03-01T01:57:00;1.20;60.00
39655;DHT22;25336;59.944;11.010;2023-03-01T01:59:28;2.00;60.20
39655;DHT22;25336;59.944;11.010;2023-03-01T02:01:56;1.10;59.70
39655;DHT22;25336;59.944;11.010;2023-03-01T02:04:23;1.10;59.70
39655;DHT22;25336;59.944;11.010;2023-03-01T02:06:53;1.00;59.60
39655;DHT22;25336;59.944;11.010;2023-03-01T02:09:23;1.90;60.10
39655;DHT22;25336;59.944;11.010;2023-03-01T02:11:50;0.80;59.60
39655;DHT22;25336;59.944;11.010;2023-03-01T02:14:16;0.70;59.60
39655;DHT22;25336;59.944;11.010;2023-03-01T02:16:42;0.70;59.70
39655;DHT22;25336;59.944;11.010;2023-03-01T02:19:16;0.60;59.80
39655;DHT22;25336;59.944;11.010;2023-03-01T02:22:34;0.60;60.00
39655;DHT22;25336;59.944;11.010;2023-03-01T02:27:09;0.50;60.40
39655;DHT22;25336;59.944;11.010;2023-03-01T02:29:35;0.40;60.80
39655;DHT22;25336;59.944;11.010;2023-03-01T02:32:02;0.40;60.90
39655;DHT22;25336;59.944;11.010;2023-03-01T02:34:30;0.90;61.50
39655;DHT22;25336;59.944;11.010;2023-03-01T02:37:00;0.30;61.30
39655;DHT22;25336;59.944;11.010;2023-03-01T02:39:37;0.30;61.60
39655;DHT22;25336;59.944;11.010;2023-03-01T02:42:07;0.30;62.00
39655;DHT22;25336;59.944;11.010;2023-03-01T02:44:34;0.30;62.00
39655;DHT22;25336;59.944;11.010;2023-03-01T02:47:02;0.30;62.10
39655;DHT22;25336;59.944;11.010;2023-03-01T02:49:31;0.30;62.20
39655;DHT22;25336;59.944;11.010;2023-03-01T02:55:01;0.30;61.90
39655;DHT22;25336;59.944;11.010;2023-03-01T02:57:28;0.20;61.80
39655;DHT22;25336;59.944;11.010;2023-03-01T02:59:56;0.20;61.70
39655;DHT22;25336;59.944;11.010;2023-03-01T03:02:26;0.10;61.60
39655;DHT22;25336;59.944;11.010;2023-03-01T03:05:09;0.10;61.40
39655;DHT22;25336;59.944;11.010;2023-03-01T03:07:38;0.10;61.50
39655;DHT22;25336;59.944;11.010;2023-03-01T03:10:07;-0.90;60.80
39655;DHT22;25336;59.944;11.010;2023-03-01T03:12:33;0.00;61.40
39655;DHT22;25336;59.944;11.010;2023-03-01T03:14:59;-0.10;61.50
39655;DHT22;25336;59.944;11.010;2023-03-01T03:17:24;-0.10;61.60
39655;DHT22;25336;59.944;11.010;2023-03-01T03:19:50;-0.10;61.80
39655;DHT22;25336;59.944;11.010;2023-03-01T03:22:16;-0.10;62.00
39655;DHT22;25336;59.944;11.010;2023-03-01T03:24:41;-0.20;62.20
39655;DHT22;25336;59.944;11.010;2023-03-01T03:27:08;-0.10;62.80
39655;DHT22;25336;59.944;11.010;2023-03-01T03:29:34;-0.20;62.70
39655;DHT22;25336;59.944;11.010;2023-03-01T03:32:00;-0.20;62.70
39655;DHT22;25336;59.944;11.010;2023-03-01T03:34:25;-0.20;62.90
39655;DHT22;25336;59.944;11.010;2023-03-01T03:36:55;-0.20;63.50
39655;DHT22;25336;59.944;11.010;2023-03-01T03:39:28;-0.20;62.60
39655;DHT22;25336;59.944;11.010;2023-03-01T03:41:54;-0.20;62.50
39655;DHT22;25336;59.944;11.010;2023-03-01T03:44:21;-0.30;62.10
39655;DHT22;25336;59.944;11.010;2023-03-01T03:46:47;-0.30;62.20
39655;DHT22;25336;59.944;11.010;2023-03-01T03:49:12;-0.30;62.10
39655;DHT22;25336;59.944;11.010;2023-03-01T03:51:38;-0.30;62.00
39655;DHT22;25336;59.944;11.010;2023-03-01T03:54:04;-0.40;62.10
39655;DHT22;25336;59.944;11.010;2023-03-01T03:56:29;-0.40;62.30
39655;DHT22;25336;59.944;11.010;2023-03-01T03:58:55;-0.50;62.40
39655;DHT22;25336;59.944;11.010;2023-03-01T04:01:20;-0.50;62.70
39655;DHT22;25336;59.944;11.010;2023-03-01T04:03:46;-0.50;63.00
39655;DHT22;25336;59.944;11.010;2023-03-01T04:06:13;-0.50;63.30
39655;DHT22;25336;59.944;11.010;2023-03-01T04:08:39;-0.50;63.60
39655;DHT22;25336;59.944;11.010;2023-03-01T04:11:06;-0.50;63.70
39655;DHT22;25336;59.944;11.010;2023-03-01T04:13:52;-1.10;63.60
39655;DHT22;25336;59.944;11.010;2023-03-01T04:16:19;-0.40;64.10
39655;DHT22;25336;59.944;11.010;2023-03-01T04:18:44;-0.50;64.00
39655;DHT22;25336;59.944;11.010;2023-03-01T04:21:11;-0.50;63.80
39655;DHT22;25336;59.944;11.010;2023-03-01T04:23:37;-0.50;63.70
39655;DHT22;25336;59.944;11.010;2023-03-01T04:26:03;-0.50;63.40
39655;DHT22;25336;59.944;11.010;2023-03-01T04:28:34;-0.50;63.20
39655;DHT22;25336;59.944;11.010;2023-03-01T04:31:04;-0.50;63.30
39655;DHT22;25336;59.944;11.010;2023-03-01T04:33:58;-0.50;63.60
39655;DHT22;25336;59.944;11.010;2023-03-01T04:36:27;-0.50;64.10
39655;DHT22;25336;59.944;11.010;2023-03-01T04:38:53;-0.50;63.70
39655;DHT22;25336;59.944;11.010;2023-03-01T04:41:20;-0.50;63.50
39655;DHT22;25336;59.944;11.010;2023-03-01T04:43:47;-0.50;63.20
39655;DHT22;25336;59.944;11.010;2023-03-01T04:46:16;-0.60;62.80
39655;DHT22;25336;59.944;11.010;2023-03-01T04:48:44;-0.60;62.40
39655;DHT22;25336;59.944;11.010;2023-03-01T04:51:10;-0.60;62.10
39655;DHT22;25336;59.944;11.010;2023-03-01T04:53:39;-0.70;61.80
39655;DHT22;25336;59.944;11.010;2023-03-01T04:56:05;-0.80;61.80
39655;DHT22;25336;59.944;11.010;2023-03-01T04:58:31;-0.80;61.80
39655;DHT22;25336;59.944;11.010;2023-03-01T05:00:57;-0.90;61.90
39655;DHT22;25336;59.944;11.010;2023-03-01T05:03:23;-0.90;62.10
39655;DHT22;25336;59.944;11.010;2023-03-01T05:05:50;-0.90;62.30
39655;DHT22;25336;59.944;11.010;2023-03-01T05:08:16;-1.00;62.60
39655;DHT22;25336;59.944;11.010;2023-03-01T05:10:47;-1.00;62.90
39655;DHT22;25336;59.944;11.010;2023-03-01T05:13:14;-1.10;63.10
39655;DHT22;25336;59.944;11.010;2023-03-01T05:15:53;-1.10;63.30
39655;DHT22;25336;59.944;11.010;2023-03-01T05:18:19;-1.10;63.40
39655;DHT22;25336;59.944;11.010;2023-03-01T05:20:44;-1.00;63.50
39655;DHT22;25336;59.944;11.010;2023-03-01T05:23:10;-1.10;63.30
39655;DHT22;25336;59.944;11.010;2023-03-01T05:25:36;-1.10;63.10
39655;DHT22;25336;59.944;11.010;2023-03-01T05:28:06;-1.20;63.30
39655;DHT22;25336;59.944;11.010;2023-03-01T05:30:33;-1.20;63.20
39655;DHT22;25336;59.944;11.010;2023-03-01T05:32:59;-1.30;63.20
39655;DHT22;25336;59.944;11.010;2023-03-01T05:35:25;-1.30;63.00
39655;DHT22;25336;59.944;11.010;2023-03-01T05:37:51;-0.90;63.30
39655;DHT22;25336;59.944;11.010;2023-03-01T05:40:23;-1.30;63.00
39655;DHT22;25336;59.944;11.010;2023-03-01T05:42:52;-1.40;63.20
39655;DHT22;25336;59.944;11.010;2023-03-01T05:45:20;-1.40;63.40
39655;DHT22;25336;59.944;11.010;2023-03-01T05:47:47;-1.40;63.40
39655;DHT22;25336;59.944;11.010;2023-03-01T05:50:25;-1.40;63.50
39655;DHT22;25336;59.944;11.010;2023-03-01T05:52:58;-1.50;63.70
39655;DHT22;25336;59.944;11.010;2023-03-01T05:55:24;-1.50;63.90
39655;DHT22;25336;59.944;11.010;2023-03-01T05:57:49;-1.50;64.00
39655;DHT22;25336;59.944;11.010;2023-03-01T06:00:18;-1.50;64.80
39655;DHT22;25336;59.944;11.010;2023-03-01T06:02:44;-1.50;64.00
39655;DHT22;25336;59.944;11.010;2023-03-01T06:05:12;-1.50;64.10
39655;DHT22;25336;59.944;11.010;2023-03-01T06:07:38;-1.50;64.20
39655;DHT22;25336;59.944;11.010;2023-03-01T06:10:04;-1.50;64.30
39655;DHT22;25336;59.944;11.010;2023-03-01T06:12:32;-1.50;64.30
39655;DHT22;25336;59.944;11.010;2023-03-01T06:14:58;-1.60;64.00
39655;DHT22;25336;59.944;11.010;2023-03-01T06:17:24;-1.60;63.70
39655;DHT22;25336;59.944;11.010;2023-03-01T06:19:49;-1.60;63.60
39655;DHT22;25336;59.944;11.010;2023-03-01T06:22:15;-1.70;63.50
39655;DHT22;25336;59.944;11.010;2023-03-01T06:24:40;-1.70;63.60
39655;DHT22;25336;59.944;11.010;2023-03-01T06:27:06;-1.70;63.90
39655;DHT22;25336;59.944;11.010;2023-03-01T06:29:32;-1.70;64.20
39655;DHT22;25336;59.944;11.010;2023-03-01T06:31:57;-1.70;64.40
39655;DHT22;25336;59.944;11.010;2023-03-01T06:34:23;-1.70;64.50
39655;DHT22;25336;59.944;11.010;2023-03-01T06:36:48;-1.70;64.60
39655;DHT22;25336;59.944;11.010;2023-03-01T06:39:14;-1.70;64.70
39655;DHT22;25336;59.944;11.010;2023-03-01T06:41:39;-1.70;64.80
39655;DHT22;25336;59.944;11.010;2023-03-01T06:44:05;-1.70;64.70
39655;DHT22;25336;59.944;11.010;2023-03-01T06:46:31;-1.70;64.70
39655;DHT22;25336;59.944;11.010;2023-03-01T06:48:56;-1.70;64.70
39655;DHT22;25336;59.944;11.010;2023-03-01T06:51:22;-1.70;64.60
39655;DHT22;25336;59.944;11.010;2023-03-01T06:53:47;-1.70;64.50
39655;DHT22;25336;59.944;11.010;2023-03-01T06:56:13;-1.70;64.70
39655;DHT22;25336;59.944;11.010;2023-03-01T06:58:38;-1.70;64.90
39655;DHT22;25336;59.944;11.010;2023-03-01T07:01:08;-1.70;65.10
39655;DHT22;25336;59.944;11.010;2023-03-01T07:03:34;-1.70;65.30
39655;DHT22;25336;59.944;11.010;2023-03-01T07:05:59;-1.60;66.50
39655;DHT22;25336;59.944;11.010;2023-03-01T07:08:25;-1.60;66.00
39655;DHT22;25336;59.944;11.010;2023-03-01T07:10:57;-1.50;66.50
39655;DHT22;25336;59.944;11.010;2023-03-01T07:13:23;-1.40;67.00
39655;DHT22;25336;59.944;11.010;2023-03-01T07:15:49;-1.40;67.00
39655;DHT22;25336;59.944;11.010;2023-03-01T07:18:14;-1.30;67.20
39655;DHT22;25336;59.944;11.010;2023-03-01T07:20:40;-1.20;67.30
39655;DHT22;25336;59.944;11.010;2023-03-01T07:23:06;-0.20;67.90
39655;DHT22;25336;59.944;11.010;2023-03-01T07:25:32;-1.00;67.40
39655;DHT22;25336;59.944;11.010;2023-03-01T07:27:58;-1.00;67.50
39655;DHT22;25336;59.944;11.010;2023-03-01T07:30:24;-0.90;67.40
39655;DHT22;25336;59.944;11.010;2023-03-01T07:32:55;-0.80;67.40
39655;DHT22;25336;59.944;11.010;2023-03-01T07:35:21;-0.70;67.40
39655;DHT22;25336;59.944;11.010;2023-03-01T07:37:47;-0.60;67.40
39655;DHT22;25336;59.944;11.010;2023-03-01T07:40:13;-0.50;67.20
39655;DHT22;25336;59.944;11.010;2023-03-01T07:42:40;-0.50;67.10
39655;DHT22;25336;59.944;11.010;2023-03-01T07:45:06;-0.40;67.10
39655;DHT22;25336;59.944;11.010;2023-03-01T07:47:32;-0.30;67.00
39655;DHT22;25336;59.944;11.010;2023-03-01T07:49:58;-0.20;67.00
39655;DHT22;25336;59.944;11.010;2023-03-01T07:52:24;-0.20;66.80
39655;DHT22;25336;59.944;11.010;2023-03-01T07:54:49;-0.10;66.80
39655;DHT22;25336;59.944;11.010;2023-03-01T07:57:15;0.00;66.60
39655;DHT22;25336;59.944;11.010;2023-03-01T07:59:40;0.00;66.30
39655;DHT22;25336;59.944;11.010;2023-03-01T08:02:07;0.10;66.80
39655;DHT22;25336;59.944;11.010;2023-03-01T08:04:33;0.10;65.90
39655;DHT22;25336;59.944;11.010;2023-03-01T08:06:58;0.20;65.90
39655;DHT22;25336;59.944;11.010;2023-03-01T08:09:24;0.20;65.60
39655;DHT22;25336;59.944;11.010;2023-03-01T08:11:50;0.90;65.90
39655;DHT22;25336;59.944;11.010;2023-03-01T08:14:16;0.30;65.40
39655;DHT22;25336;59.944;11.010;2023-03-01T08:16:42;0.30;65.40
39655;DHT22;25336;59.944;11.010;2023-03-01T08:19:09;0.80;65.60
39655;DHT22;25336;59.944;11.010;2023-03-01T08:21:35;0.40;65.30
39655;DHT22;25336;59.944;11.010;2023-03-01T08:24:05;0.50;65.30
39655;DHT22;25336;59.944;11.010;2023-03-01T08:26:32;0.50;65.40
39655;DHT22;25336;59.944;11.010;2023-03-01T08:28:59;0.60;65.40
39655;DHT22;25336;59.944;11.010;2023-03-01T08:31:31;0.60;65.50
39655;DHT22;25336;59.944;11.010;2023-03-01T08:34:01;0.70;65.60
39655;DHT22;25336;59.944;11.010;2023-03-01T08:36:29;0.70;65.50
39655;DHT22;25336;59.944;11.010;2023-03-01T08:38:56;0.80;65.40
39655;DHT22;25336;59.944;11.010;2023-03-01T08:41:21;0.30;65.10
39655;DHT22;25336;59.944;11.010;2023-03-01T08:43:47;1.00;65.70
39655;DHT22;25336;59.944;11.010;2023-03-01T08:46:13;1.00;65.60
39655;DHT22;25336;59.944;11.010;2023-03-01T08:48:39;1.10;65.70
39655;DHT22;25336;59.944;11.010;2023-03-01T08:51:16;1.20;65.60
39655;DHT22;25336;59.944;11.010;2023-03-01T08:53:42;2.00;66.00
39655;DHT22;25336;59.944;11.010;2023-03-01T08:56:09;2.60;66.30
39655;DHT22;25336;59.944;11.010;2023-03-01T08:58:35;1.50;65.50
39655;DHT22;25336;59.944;11.010;2023-03-01T09:01:07;1.60;65.30
39655;DHT22;25336;59.944;11.010;2023-03-01T09:03:33;1.70;65.40
39655;DHT22;25336;59.944;11.010;2023-03-01T09:06:02;1.80;65.30
39655;DHT22;25336;59.944;11.010;2023-03-01T09:08:29;1.90;65.20
39655;DHT22;25336;59.944;11.010;2023-03-01T09:10:54;2.00;65.20
39655;DHT22;25336;59.944;11.010;2023-03-01T09:13:20;2.10;65.10
39655;DHT22;25336;59.944;11.010;2023-03-01T09:15:46;2.20;64.90
39655;DHT22;25336;59.944;11.010;2023-03-01T09:18:12;2.30;64.80
39655;DHT22;25336;59.944;11.010;2023-03-01T09:20:37;2.40;64.60
39655;DHT22;25336;59.944;11.010;2023-03-01T09:23:03;2.50;64.60
39655;DHT22;25336;59.944;11.010;2023-03-01T09:25:28;2.60;64.40
39655;DHT22;25336;59.944;11.010;2023-03-01T09:27:54;2.80;64.50
39655;DHT22;25336;59.944;11.010;2023-03-01T09:30:22;2.90;64.30
39655;DHT22;25336;59.944;11.010;2023-03-01T09:32:47;3.00;64.30
39655;DHT22;25336;59.944;11.010;2023-03-01T09:35:13;3.10;64.20
39655;DHT22;25336;59.944;11.010;2023-03-01T09:37:39;3.20;64.10
39655;DHT22;25336;59.944;11.010;2023-03-01T09:40:19;3.30;63.90
39655;DHT22;25336;59.944;11.010;2023-03-01T09:42:55;3.40;63.60
39655;DHT22;25336;59.944;11.010;2023-03-01T09:45:30;3.60;63.50
39655;DHT22;25336;59.944;11.010;2023-03-01T09:47:58;3.70;63.40
39655;DHT22;25336;59.944;11.010;2023-03-01T09:50:27;3.80;63.30
39655;DHT22;25336;59.944;11.010;2023-03-01T09:53:10;3.90;63.00
39655;DHT22;25336;59.944;11.010;2023-03-01T09:55:46;4.10;62.80
39655;DHT22;25336;59.944;11.010;2023-03-01T10:01:00;4.30;62.20
39655;DHT22;25336;59.944;11.010;2023-03-01T10:03:34;5.30;62.70
39655;DHT22;25336;59.944;11.010;2023-03-01T10:08:43;4.60;61.70
39655;DHT22;25336;59.944;11.010;2023-03-01T10:11:24;4.70;62.30
39655;DHT22;25336;59.944;11.010;2023-03-01T10:14:07;4.90;61.30
39655;DHT22;25336;59.944;11.010;2023-03-01T10:16:58;5.00;61.30
39655;DHT22;25336;59.944;11.010;2023-03-01T10:19:44;5.10;60.90
39655;DHT22;25336;59.944;11.010;2023-03-01T10:22:26;5.20;60.80
39655;DHT22;25336;59.944;11.010;2023-03-01T10:24:58;5.40;60.70
39655;DHT22;25336;59.944;11.010;2023-03-01T10:27:33;5.50;60.30
39655;DHT22;25336;59.944;11.010;2023-03-01T10:30:22;5.60;59.90
39655;DHT22;25336;59.944;11.010;2023-03-01T10:32:54;5.70;59.60
39655;DHT22;25336;59.944;11.010;2023-03-01T10:35:28;5.80;59.70
39655;DHT22;25336;59.944;11.010;2023-03-01T10:40:28;6.00;58.90
39655;DHT22;25336;59.944;11.010;2023-03-01T10:42:58;6.20;59.00
39655;DHT22;25336;59.944;11.010;2023-03-01T10:50:30;6.60;57.90
39655;DHT22;25336;59.944;11.010;2023-03-01T10:52:59;6.70;58.50
39655;DHT22;25336;59.944;11.010;2023-03-01T10:55:27;6.80;57.90
39655;DHT22;25336;59.944;11.010;2023-03-01T11:00:57;8.00;56.70
39655;DHT22;25336;59.944;11.010;2023-03-01T11:03:25;7.20;55.70
39655;DHT22;25336;59.944;11.010;2023-03-01T11:05:54;7.30;56.30
39655;DHT22;25336;59.944;11.010;2023-03-01T11:14:22;7.60;55.40
39655;DHT22;25336;59.944;11.010;2023-03-01T11:19:14;7.70;55.30
39655;DHT22;25336;59.944;11.010;2023-03-01T11:22:01;7.80;55.10
39655;DHT22;25336;59.944;11.010;2023-03-01T11:24:36;7.90;54.40
39655;DHT22;25336;59.944;11.010;2023-03-01T11:27:04;7.90;54.00
39655;DHT22;25336;59.944;11.010;2023-03-01T11:29:37;8.00;54.50
39655;DHT22;25336;59.944;11.010;2023-03-01T11:32:07;8.10;54.50
39655;DHT22;25336;59.944;11.010;2023-03-01T11:34:42;8.10;54.20
39655;DHT22;25336;59.944;11.010;2023-03-01T11:37:26;8.20;54.10
39655;DHT22;25336;59.944;11.010;2023-03-01T11:40:13;8.30;53.70
39655;DHT22;25336;59.944;11.010;2023-03-01T11:42:49;8.30;53.70
39655;DHT22;25336;59.944;11.010;2023-03-01T11:45:16;8.40;54.00
39655;DHT22;25336;59.944;11.010;2023-03-01T11:47:56;8.40;53.30
39655;DHT22;25336;59.944;11.010;2023-03-01T11:50:39;8.50;53.00
39655;DHT22;25336;59.944;11.010;2023-03-01T11:53:45;8.50;53.20
39655;DHT22;25336;59.944;11.010;2023-03-01T11:56:47;9.20;52.60
39655;DHT22;25336;59.944;11.010;2023-03-01T11:59:43;8.60;52.00
39655;DHT22;25336;59.944;11.010;2023-03-01T12:05:02;8.70;51.90
39655;DHT22;25336;59.944;11.010;2023-03-01T12:07:44;8.70;51.70
39655;DHT22;25336;59.944;11.010;2023-03-01T12:15:30;8.80;51.40
39655;DHT22;25336;59.944;11.010;2023-03-01T12:23:53;9.00;51.10
39655;DHT22;25336;59.944;11.010;2023-03-01T12:26:39;9.00;50.80
39655;DHT22;25336;59.944;11.010;2023-03-01T12:34:54;9.20;50.70
39655;DHT22;25336;59.944;11.010;2023-03-01T12:37:36;9.20;50.50
39655;DHT22;25336;59.944;11.010;2023-03-01T12:42:53;9.30;50.70
39655;DHT22;25336;59.944;11.010;2023-03-01T12:45:35;9.40;50.30
39655;DHT22;25336;59.944;11.010;2023-03-01T12:48:31;9.40;50.20
39655;DHT22;25336;59.944;11.010;2023-03-01T12:51:04;9.50;49.50
39655;DHT22;25336;59.944;11.010;2023-03-01T12:53:41;9.50;50.10
39655;DHT22;25336;59.944;11.010;2023-03-01T12:56:11;9.60;49.70
39655;DHT22;25336;59.944;11.010;2023-03-01T12:59:01;9.60;49.90
39655;DHT22;25336;59.944;11.010;2023-03-01T13:12:43;9.80;48.90
39655;DHT22;25336;59.944;11.010;2023-03-01T13:17:55;9.90;48.50
39655;DHT22;25336;59.944;11.010;2023-03-01T13:20:32;9.90;49.10
39655;DHT22;25336;59.944;11.010;2023-03-01T13:23:06;10.00;48.50
39655;DHT22;25336;59.944;11.010;2023-03-01T13:25:32;10.00;47.70
39655;DHT22;25336;59.944;11.010;2023-03-01T13:30:58;10.10;46.80
39655;DHT22;25336;59.944;11.010;2023-03-01T13:35:59;10.10;47.40
39655;DHT22;25336;59.944;11.010;2023-03-01T13:41:17;10.10;47.00
39655;DHT22;25336;59.944;11.010;2023-03-01T13:44:12;10.20;47.40
39655;DHT22;25336;59.944;11.010;2023-03-01T13:46:38;10.20;47.20
39655;DHT22;25336;59.944;11.010;2023-03-01T13:49:05;10.20;47.50
39655;DHT22;25336;59.944;11.010;2023-03-01T13:51:30;10.20;47.40
39655;DHT22;25336;59.944;11.010;2023-03-01T13:53:57;10.20;47.30
39655;DHT22;25336;59.944;11.010;2023-03-01T13:56:27;10.30;47.20
39655;DHT22;25336;59.944;11.010;2023-03-01T14:01:32;10.30;47.00
39655;DHT22;25336;59.944;11.010;2023-03-01T14:03:58;10.30;47.10
39655;DHT22;25336;59.944;11.010;2023-03-01T14:06:29;10.40;47.10
39655;DHT22;25336;59.944;11.010;2023-03-01T14:09:17;10.40;46.60
39655;DHT22;25336;59.944;11.010;2023-03-01T14:11:56;10.40;46.20
39655;DHT22;25336;59.944;11.010;2023-03-01T14:20:26;10.50;45.50
39655;DHT22;25336;59.944;11.010;2023-03-01T14:22:54;10.50;45.70
39655;DHT22;25336;59.944;11.010;2023-03-01T14:25:25;10.50;46.30
39655;DHT22;25336;59.944;11.010;2023-03-01T14:27:58;10.50;46.20
39655;DHT22;25336;59.944;11.010;2023-03-01T14:30:38;10.50;46.20
39655;DHT22;25336;59.944;11.010;2023-03-01T14:33:38;10.50;46.20
39655;DHT22;25336;59.944;11.010;2023-03-01T14:36:11;10.50;45.50
39655;DHT22;25336;59.944;11.010;2023-03-01T14:38:42;10.50;45.90
39655;DHT22;25336;59.944;11.010;2023-03-01T14:41:20;10.50;45.80
39655;DHT22;25336;59.944;11.010;2023-03-01T14:43:56;10.50;45.60
39655;DHT22;25336;59.944;11.010;2023-03-01T14:46:28;10.50;45.20
39655;DHT22;25336;59.944;11.010;2023-03-01T14:49:05;10.40;45.50
39655;DHT22;25336;59.944;11.010;2023-03-01T14:51:36;10.40;45.50
39655;DHT22;25336;59.944;11.010;2023-03-01T14:54:03;10.40;45.50
39655;DHT22;25336;59.944;11.010;2023-03-01T14:56:43;10.40;45.60
39655;DHT22;25336;59.944;11.010;2023-03-01T14:59:11;10.40;45.20
39655;DHT22;25336;59.944;11.010;2023-03-01T15:01:36;10.40;45.90
39655;DHT22;25336;59.944;11.010;2023-03-01T15:04:02;10.40;45.70
39655;DHT22;25336;59.944;11.010;2023-03-01T15:06:28;10.40;45.70
39655;DHT22;25336;59.944;11.010;2023-03-01T15:08:55;10.30;45.30
39655;DHT22;25336;59.944;11.010;2023-03-01T15:11:27;10.30;45.50
39655;DHT22;25336;59.944;11.010;2023-03-01T15:13:53;10.30;45.70
39655;DHT22;25336;59.944;11.010;2023-03-01T15:16:31;10.30;45.50
39655;DHT22;25336;59.944;11.010;2023-03-01T15:19:00;10.30;45.40
39655;DHT22;25336;59.944;11.010;2023-03-01T15:21:30;10.30;45.30
39655;DHT22;25336;59.944;11.010;2023-03-01T15:26:49;10.20;44.90
39655;DHT22;25336;59.944;11.010;2023-03-01T15:29:19;10.20;45.30
39655;DHT22;25336;59.944;11.010;2023-03-01T15:32:20;10.20;45.10
39655;DHT22;25336;59.944;11.010;2023-03-01T15:34:47;10.10;45.20
39655;DHT22;25336;59.944;11.010;2023-03-01T15:37:38;10.10;45.30
39655;DHT22;25336;59.944;11.010;2023-03-01T15:40:27;10.10;45.00
39655;DHT22;25336;59.944;11.010;2023-03-01T15:43:04;9.90;45.00
39655;DHT22;25336;59.944;11.010;2023-03-01T15:45:32;9.90;45.30
39655;DHT22;25336;59.944;11.010;2023-03-01T15:48:15;9.80;45.40
39655;DHT22;25336;59.944;11.010;2023-03-01T15:50:42;9.80;45.10
39655;DHT22;25336;59.944;11.010;2023-03-01T15:53:13;9.70;45.20
39655;DHT22;25336;59.944;11.010;2023-03-01T15:55:40;9.70;45.50
39655;DHT22;25336;59.944;11.010;2023-03-01T15:58:09;9.70;45.60
39655;DHT22;25336;59.944;11.010;2023-03-01T16:00:36;9.60;45.60
39655;DHT22;25336;59.944;11.010;2023-03-01T16:03:02;9.60;45.60
39655;DHT22;25336;59.944;11.010;2023-03-01T16:05:31;9.50;45.50
39655;DHT22;25336;59.944;11.010;2023-03-01T16:07:57;9.50;45.70
39655;DHT22;25336;59.944;11.010;2023-03-01T16:10:23;9.50;45.80
39655;DHT22;25336;59.944;11.010;2023-03-01T16:12:50;9.40;45.70
39655;DHT22;25336;59.944;11.010;2023-03-01T16:15:22;9.30;45.80
39655;DHT22;25336;59.944;11.010;2023-03-01T16:17:48;9.30;46.00
39655;DHT22;25336;59.944;11.010;2023-03-01T16:20:14;9.30;45.80
39655;DHT22;25336;59.944;11.010;2023-03-01T16:22:44;9.20;45.80
39655;DHT22;25336;59.944;11.010;2023-03-01T16:25:11;9.20;45.90
39655;DHT22;25336;59.944;11.010;2023-03-01T16:27:38;9.10;45.70
39655;DHT22;25336;59.944;11.010;2023-03-01T16:30:05;9.10;45.90
39655;DHT22;25336;59.944;11.010;2023-03-01T16:32:31;8.80;45.80
39655;DHT22;25336;59.944;11.010;2023-03-01T16:34:57;9.00;46.00
39655;DHT22;25336;59.944;11.010;2023-03-01T16:37:22;8.90;45.90
39655;DHT22;25336;59.944;11.010;2023-03-01T16:39:48;8.90;46.00
39655;DHT22;25336;59.944;11.010;2023-03-01T16:42:17;8.80;45.90
39655;DHT22;25336;59.944;11.010;2023-03-01T16:44:43;8.80;45.80
39655;DHT22;25336;59.944;11.010;2023-03-01T16:47:08;8.70;46.00
39655;DHT22;25336;59.944;11.010;2023-03-01T16:49:34;8.70;46.00
39655;DHT22;25336;59.944;11.010;2023-03-01T16:51:59;8.60;45.90
39655;DHT22;25336;59.944;11.010;2023-03-01T16:54:25;8.60;46.00
39655;DHT22;25336;59.944;11.010;2023-03-01T16:56:51;8.50;46.00
39655;DHT22;25336;59.944;11.010;2023-03-01T16:59:16;8.50;46.20
39655;DHT22;25336;59.944;11.010;2023-03-01T17:01:44;8.40;46.20
39655;DHT22;25336;59.944;11.010;2023-03-01T17:04:13;8.40;46.40
39655;DHT22;25336;59.944;11.010;2023-03-01T17:06:38;8.30;46.30
39655;DHT22;25336;59.944;11.010;2023-03-01T17:09:04;9.10;46.80